createdAt,value
2023-05-16T00:01:14.062Z,7.30
2023-05-16T00:03:42.647Z,7.20
2023-05-16T00:06:10.056Z,7.20
2023-05-16T00:08:37.219Z,7.10
2023-05-16T00:11:04.184Z,7.00
2023-05-16T00:13:31.837Z,7.00
2023-05-16T00:15:59.652Z,7.10
2023-05-16T00:18:27.177Z,7.10
2023-05-16T00:20:54.830Z,7.10
2023-05-16T00:23:22.145Z,7.10
2023-05-16T00:25:49.523Z,7.10
2023-05-16T00:28:16.938Z,7.20
2023-05-16T00:30:43.862Z,7.20
2023-05-16T00:33:11.978Z,7.20
2023-05-16T00:35:38.990Z,7.20
2023-05-16T00:38:06.283Z,7.20
2023-05-16T00:40:33.283Z,7.10
2023-05-16T00:43:00.263Z,7.00
2023-05-16T00:45:27.392Z,6.90
2023-05-16T00:47:54.915Z,6.90
2023-05-16T00:50:22.244Z,6.90
2023-05-16T00:52:49.362Z,6.90
2023-05-16T00:55:16.630Z,6.90
2023-05-16T00:57:43.809Z,6.90
2023-05-16T01:00:11.126Z,6.90
2023-05-16T01:02:39.318Z,6.90
2023-05-16T01:05:08.607Z,6.90
2023-05-16T01:07:36.393Z,6.90
2023-05-16T01:10:06.079Z,6.80
2023-05-16T01:13:05.854Z,6.90
2023-05-16T01:15:50.989Z,6.80
2023-05-16T01:18:27.678Z,6.90
2023-05-16T01:21:01.341Z,6.90
2023-05-16T01:23:41.538Z,6.90
2023-05-16T01:26:27.915Z,6.80
2023-05-16T01:28:55.907Z,6.80
2023-05-16T01:31:24.086Z,6.70
2023-05-16T01:33:53.979Z,6.60
2023-05-16T01:36:41.543Z,6.60
2023-05-16T01:39:09.041Z,6.50
2023-05-16T01:41:59.215Z,6.40
2023-05-16T01:44:32.263Z,6.20
2023-05-16T01:47:02.965Z,6.10
2023-05-16T01:49:41.569Z,6.00
2023-05-16T01:52:24.522Z,6.00
2023-05-16T01:54:55.940Z,6.10
2023-05-16T01:57:26.559Z,6.20
2023-05-16T01:59:54.203Z,6.30
2023-05-16T02:02:22.810Z,6.50
2023-05-16T02:04:50.978Z,6.60
2023-05-16T02:07:19.431Z,6.70
2023-05-16T02:09:46.456Z,6.80
2023-05-16T02:12:13.526Z,6.70
2023-05-16T02:14:40.857Z,6.70
2023-05-16T02:17:08.111Z,6.70
2023-05-16T02:19:35.301Z,6.80
2023-05-16T02:22:02.314Z,6.80
2023-05-16T02:24:29.314Z,6.90
2023-05-16T02:26:56.244Z,7.00
2023-05-16T02:29:23.260Z,7.10
2023-05-16T02:31:50.320Z,7.20
2023-05-16T02:34:17.287Z,7.30
2023-05-16T02:36:44.360Z,7.40
2023-05-16T02:39:11.457Z,7.50
2023-05-16T02:41:38.430Z,7.60
2023-05-16T02:44:05.544Z,7.60
2023-05-16T02:46:34.448Z,7.70
2023-05-16T02:49:02.268Z,7.70
2023-05-16T02:51:29.917Z,7.80
2023-05-16T02:54:05.654Z,7.80
2023-05-16T02:56:32.641Z,7.80
2023-05-16T02:59:01.942Z,7.70
2023-05-16T03:01:28.983Z,7.70
2023-05-16T03:03:56.343Z,7.60
2023-05-16T03:06:24.707Z,7.60
2023-05-16T03:08:51.740Z,7.50
2023-05-16T03:11:21.975Z,7.50
2023-05-16T03:13:49.531Z,7.40
2023-05-16T03:16:17.085Z,7.50
2023-05-16T03:18:44.493Z,7.40
2023-05-16T03:21:11.674Z,7.40
2023-05-16T03:23:39.897Z,7.40
2023-05-16T03:26:07.777Z,7.50
2023-05-16T03:28:34.834Z,7.50
2023-05-16T03:31:01.979Z,7.50
2023-05-16T03:33:28.961Z,7.50
2023-05-16T03:35:56.467Z,7.40
2023-05-16T03:38:24.028Z,7.50
2023-05-16T03:40:51.469Z,7.50
2023-05-16T03:43:18.409Z,7.60
2023-05-16T03:45:45.342Z,7.60
2023-05-16T03:48:12.527Z,7.60
2023-05-16T03:50:41.135Z,7.70
2023-05-16T03:53:09.850Z,7.70
2023-05-16T03:55:36.958Z,7.80
2023-05-16T03:58:04.084Z,7.80
2023-05-16T04:00:31.116Z,7.90
2023-05-16T04:02:58.422Z,8.00
2023-05-16T04:05:26.096Z,8.00
2023-05-16T04:07:53.373Z,8.10
2023-05-16T04:10:20.740Z,8.10
2023-05-16T04:12:48.994Z,8.10
2023-05-16T04:15:15.896Z,8.10
2023-05-16T04:17:43.209Z,8.10
2023-05-16T04:20:11.271Z,8.10
2023-05-16T04:22:38.275Z,8.20
2023-05-16T04:25:05.501Z,8.20
2023-05-16T04:27:32.485Z,8.30
2023-05-16T04:30:00.095Z,8.30
2023-05-16T04:32:29.139Z,8.40
2023-05-16T04:34:56.256Z,8.60
2023-05-16T04:37:23.660Z,8.70
2023-05-16T04:39:51.608Z,8.80
2023-05-16T04:42:20.039Z,9.00
2023-05-16T04:44:48.075Z,9.10
2023-05-16T04:47:16.388Z,9.20
2023-05-16T04:49:43.350Z,9.30
2023-05-16T04:52:11.301Z,9.30
2023-05-16T04:54:41.553Z,9.30
2023-05-16T04:57:08.568Z,9.40
2023-05-16T04:59:36.701Z,9.40
2023-05-16T05:02:04.859Z,9.50
2023-05-16T05:04:32.014Z,9.50
2023-05-16T05:07:00.067Z,9.50
2023-05-16T05:09:27.245Z,9.50
2023-05-16T05:11:54.298Z,9.50
2023-05-16T05:14:21.930Z,9.60
2023-05-16T05:16:49.008Z,9.60
2023-05-16T05:19:16.313Z,9.60
2023-05-16T05:21:43.415Z,9.70
2023-05-16T05:24:10.596Z,9.70
2023-05-16T05:26:37.719Z,9.70
2023-05-16T05:29:06.225Z,9.80
2023-05-16T05:31:35.226Z,9.90
2023-05-16T05:34:03.300Z,10.00
2023-05-16T05:36:31.214Z,10.00
2023-05-16T05:38:58.277Z,10.10
2023-05-16T05:41:25.195Z,10.20
2023-05-16T05:43:52.695Z,10.30
2023-05-16T05:46:19.735Z,10.50
2023-05-16T05:48:47.054Z,10.60
2023-05-16T05:51:14.448Z,10.70
2023-05-16T05:53:42.115Z,10.80
2023-05-16T05:56:09.481Z,10.90
2023-05-16T05:58:36.849Z,11.00
2023-05-16T06:01:04.040Z,11.10
2023-05-16T06:03:31.202Z,11.30
2023-05-16T06:05:58.519Z,11.40
2023-05-16T06:08:25.732Z,11.50
2023-05-16T06:10:52.930Z,11.70
2023-05-16T06:13:19.918Z,11.90
2023-05-16T06:15:54.144Z,12.00
2023-05-16T06:18:21.512Z,12.50
2023-05-16T06:20:48.489Z,13.10
2023-05-16T06:23:15.480Z,13.60
2023-05-16T06:25:42.452Z,14.10
2023-05-16T06:28:09.453Z,14.60
2023-05-16T06:30:36.368Z,14.90
2023-05-16T06:33:04.450Z,15.10
2023-05-16T06:35:31.385Z,15.20
2023-05-16T06:37:58.395Z,15.20
2023-05-16T06:40:25.343Z,15.10
2023-05-16T06:42:52.288Z,15.10
2023-05-16T06:45:19.382Z,14.80
2023-05-16T06:47:46.481Z,14.50
2023-05-16T06:50:13.952Z,14.10
2023-05-16T06:52:42.366Z,13.90
2023-05-16T06:55:09.893Z,13.70
2023-05-16T06:57:36.958Z,13.70
2023-05-16T07:00:04.613Z,13.70
2023-05-16T07:02:32.115Z,14.10
2023-05-16T07:04:59.283Z,14.40
2023-05-16T07:07:26.744Z,14.60
2023-05-16T07:09:53.761Z,14.70
2023-05-16T07:12:21.156Z,14.60
2023-05-16T07:14:48.204Z,14.60
2023-05-16T07:17:15.794Z,14.40
2023-05-16T07:19:45.180Z,14.30
2023-05-16T07:22:12.775Z,14.30
2023-05-16T07:24:39.886Z,14.20
2023-05-16T07:27:07.197Z,14.30
2023-05-16T07:29:34.265Z,14.70
2023-05-16T07:32:01.503Z,14.90
2023-05-16T07:34:28.622Z,14.80
2023-05-16T07:36:55.794Z,14.60
2023-05-16T07:39:22.978Z,14.60
2023-05-16T07:41:50.037Z,14.70
2023-05-16T07:44:20.003Z,14.90
2023-05-16T07:46:47.079Z,15.00
2023-05-16T07:49:14.237Z,15.10
2023-05-16T07:51:41.218Z,15.30
2023-05-16T07:54:08.227Z,15.60
2023-05-16T07:56:35.402Z,15.70
2023-05-16T07:59:02.783Z,15.80
2023-05-16T08:01:29.843Z,15.80
2023-05-16T08:03:56.964Z,15.80
2023-05-16T08:06:24.095Z,15.90
2023-05-16T08:08:52.426Z,16.00
2023-05-16T08:11:22.766Z,16.00
2023-05-16T08:13:50.428Z,16.00
2023-05-16T08:16:17.546Z,15.70
2023-05-16T08:18:44.666Z,15.50
2023-05-16T08:21:11.742Z,15.30
2023-05-16T08:23:38.833Z,15.20
2023-05-16T08:26:05.878Z,15.10
2023-05-16T08:28:33.276Z,15.10
2023-05-16T08:31:00.415Z,15.00
2023-05-16T08:33:27.422Z,14.90
2023-05-16T08:35:54.600Z,14.90
2023-05-16T08:38:22.766Z,15.00
2023-05-16T08:40:49.902Z,15.20
2023-05-16T08:43:17.063Z,15.50
2023-05-16T08:45:44.559Z,15.80
2023-05-16T08:48:14.687Z,16.30
2023-05-16T08:50:43.061Z,16.80
2023-05-16T08:53:13.416Z,17.30
2023-05-16T08:55:42.850Z,17.80
2023-05-16T08:58:10.692Z,18.70
2023-05-16T09:00:38.355Z,19.20
2023-05-16T09:03:06.431Z,19.20
2023-05-16T09:05:33.795Z,19.20
2023-05-16T09:08:02.448Z,19.00
2023-05-16T09:10:31.453Z,19.00
2023-05-16T09:12:58.483Z,18.60
2023-05-16T09:15:32.860Z,17.80
2023-05-16T09:18:02.338Z,17.30
2023-05-16T09:20:29.710Z,16.80
2023-05-16T09:22:59.215Z,16.30
2023-05-16T09:25:31.967Z,15.90
2023-05-16T09:28:02.134Z,15.50
2023-05-16T09:30:32.297Z,15.00
2023-05-16T09:32:59.864Z,14.60
2023-05-16T09:37:57.969Z,14.00
2023-05-16T09:40:25.078Z,13.80
2023-05-16T09:43:06.184Z,13.60
2023-05-16T09:45:34.784Z,13.50
2023-05-16T09:48:07.171Z,13.40
2023-05-16T09:50:35.903Z,13.30
2023-05-16T09:53:04.009Z,13.20
2023-05-16T09:55:32.132Z,13.10
2023-05-16T09:57:59.211Z,13.10
2023-05-16T10:00:34.184Z,13.00
2023-05-16T10:03:05.844Z,13.00
2023-05-16T10:05:35.020Z,12.90
2023-05-16T10:08:04.643Z,12.70
2023-05-16T10:10:35.875Z,12.50
2023-05-16T10:13:05.884Z,12.30
2023-05-16T10:15:33.555Z,12.20
2023-05-16T10:18:02.171Z,12.10
2023-05-16T10:20:29.643Z,12.10
2023-05-16T10:22:58.299Z,11.90
2023-05-16T10:25:36.836Z,11.80
2023-05-16T10:28:04.327Z,11.80
2023-05-16T10:30:34.725Z,11.80
2023-05-16T10:33:04.547Z,11.80
2023-05-16T10:35:33.137Z,11.90
2023-05-16T10:38:01.612Z,12.00
2023-05-16T10:40:30.422Z,12.10
2023-05-16T10:42:58.276Z,12.10
2023-05-16T10:45:25.548Z,12.10
2023-05-16T10:47:58.249Z,12.30
2023-05-16T10:50:46.424Z,12.30
2023-05-16T10:53:17.322Z,12.30
2023-05-16T10:56:00.664Z,12.30
2023-05-16T10:58:35.189Z,12.40
2023-05-16T11:01:32.125Z,12.20
2023-05-16T11:03:59.228Z,12.10
2023-05-16T11:06:48.348Z,12.00
2023-05-16T11:09:18.384Z,12.00
2023-05-16T11:11:50.365Z,12.20
2023-05-16T11:14:25.102Z,12.60
2023-05-16T11:17:25.405Z,12.80
2023-05-16T11:19:59.634Z,12.80
2023-05-16T11:22:32.835Z,12.70
2023-05-16T11:25:08.271Z,12.70
2023-05-16T11:27:44.140Z,12.70
2023-05-16T11:30:22.149Z,12.70
2023-05-16T11:32:51.017Z,12.70
2023-05-16T11:35:21.530Z,12.60
2023-05-16T11:37:48.648Z,12.50
2023-05-16T11:40:18.274Z,12.60
2023-05-16T11:42:47.927Z,12.60
2023-05-16T11:45:19.856Z,12.60
2023-05-16T11:47:48.673Z,12.70
2023-05-16T11:50:26.860Z,12.60
2023-05-16T11:52:56.848Z,12.60
2023-05-16T11:55:41.221Z,12.50
2023-05-16T11:58:12.420Z,12.30
2023-05-16T12:00:48.690Z,12.10
2023-05-16T12:03:15.989Z,12.00
2023-05-16T12:05:53.733Z,11.90
2023-05-16T12:08:25.413Z,12.00
2023-05-16T12:10:53.757Z,12.10
2023-05-16T12:13:23.825Z,12.40
2023-05-16T12:15:52.990Z,12.70
2023-05-16T12:18:22.127Z,13.20
2023-05-16T12:20:49.431Z,13.50
2023-05-16T12:23:16.958Z,13.90
2023-05-16T12:25:49.452Z,14.20
2023-05-16T12:28:16.763Z,14.80
2023-05-16T12:30:49.119Z,15.20
2023-05-16T12:33:17.387Z,15.50
2023-05-16T12:35:46.305Z,15.90
2023-05-16T12:38:15.967Z,16.00
2023-05-16T12:40:44.893Z,16.20
2023-05-16T12:43:21.667Z,16.40
2023-05-16T12:45:57.469Z,16.30
2023-05-16T12:48:31.909Z,16.20
2023-05-16T12:51:16.566Z,16.20
2023-05-16T12:54:01.396Z,16.00
2023-05-16T12:56:33.037Z,16.00
2023-05-16T12:59:00.442Z,16.10
2023-05-16T13:01:29.281Z,16.00
2023-05-16T13:03:58.142Z,15.90
2023-05-16T13:06:25.469Z,15.90
2023-05-16T13:08:52.827Z,16.20
2023-05-16T13:11:20.074Z,16.40
2023-05-16T13:13:47.214Z,16.50
2023-05-16T13:16:14.456Z,16.40
2023-05-16T13:18:41.708Z,16.70
2023-05-16T13:21:08.919Z,17.00
2023-05-16T13:23:35.976Z,17.10
2023-05-16T13:26:03.100Z,17.10
2023-05-16T13:28:30.123Z,17.40
2023-05-16T13:30:59.693Z,17.70
2023-05-16T13:33:27.833Z,17.60
2023-05-16T13:35:55.909Z,17.40
2023-05-16T13:38:22.974Z,17.40
2023-05-16T13:40:51.216Z,17.50
2023-05-16T13:43:18.264Z,17.70
2023-05-16T13:45:45.833Z,17.90
2023-05-16T13:48:13.112Z,17.80
2023-05-16T13:50:44.238Z,17.80
2023-05-16T13:53:11.622Z,17.80
2023-05-16T13:55:38.801Z,17.80
2023-05-16T13:58:06.336Z,17.80
2023-05-16T14:00:44.439Z,17.60
2023-05-16T14:03:14.071Z,17.50
2023-05-16T14:05:41.251Z,17.50
2023-05-16T14:08:08.372Z,17.50
2023-05-16T14:10:35.389Z,17.40
2023-05-16T14:13:02.669Z,17.40
2023-05-16T14:15:29.961Z,17.20
2023-05-16T14:17:57.598Z,17.20
2023-05-16T14:20:24.655Z,17.20
2023-05-16T14:22:52.193Z,16.80
2023-05-16T14:25:19.318Z,16.30
2023-05-16T14:27:46.473Z,15.90
2023-05-16T14:30:13.948Z,15.60
2023-05-16T14:32:41.401Z,15.40
2023-05-16T14:35:10.085Z,15.20
2023-05-16T14:37:37.118Z,15.20
2023-05-16T14:40:05.983Z,15.20
2023-05-16T14:42:34.301Z,15.20
2023-05-16T14:45:01.559Z,15.20
2023-05-16T14:47:31.476Z,15.10
2023-05-16T14:49:59.070Z,14.90
2023-05-16T14:52:26.142Z,14.40
2023-05-16T14:54:53.267Z,14.00
2023-05-16T14:57:20.382Z,13.40
2023-05-16T14:59:49.868Z,13.10
2023-05-16T15:02:19.145Z,12.90
2023-05-16T15:04:46.415Z,13.00
2023-05-16T15:07:13.832Z,13.20
2023-05-16T15:09:40.992Z,13.50
2023-05-16T15:12:08.922Z,13.80
2023-05-16T15:14:37.004Z,14.20
2023-05-16T15:17:06.043Z,14.60
2023-05-16T15:19:35.263Z,14.80
2023-05-16T15:22:02.657Z,14.70
2023-05-16T15:24:31.044Z,14.60
2023-05-16T15:26:58.284Z,14.50
2023-05-16T15:29:27.553Z,14.50
2023-05-16T15:31:54.532Z,14.40
2023-05-16T15:34:21.679Z,14.40
2023-05-16T15:36:48.706Z,14.50
2023-05-16T15:39:16.382Z,14.60
2023-05-16T15:44:17.472Z,14.60
2023-05-16T15:46:44.542Z,14.50
2023-05-16T15:49:13.140Z,14.30
2023-05-16T15:51:40.618Z,14.00
2023-05-16T15:54:08.572Z,13.80
2023-05-16T15:56:35.683Z,13.60
2023-05-16T15:59:02.713Z,13.50
2023-05-16T16:01:29.809Z,13.40
2023-05-16T16:03:57.029Z,13.30
2023-05-16T16:06:24.278Z,13.20
2023-05-16T16:08:51.318Z,13.00
2023-05-16T16:11:22.770Z,13.00
2023-05-16T16:13:50.090Z,12.80
2023-05-16T16:16:18.054Z,12.60
2023-05-16T16:18:45.489Z,12.50
2023-05-16T16:21:13.265Z,12.40
2023-05-16T16:23:40.450Z,12.50
2023-05-16T16:26:07.774Z,12.40
2023-05-16T16:28:34.844Z,12.30
2023-05-16T16:31:01.913Z,12.10
2023-05-16T16:33:28.935Z,12.00
2023-05-16T16:35:56.015Z,11.90
2023-05-16T16:38:23.472Z,11.90
2023-05-16T16:40:50.480Z,12.00
2023-05-16T16:43:17.620Z,12.00
2023-05-16T16:45:44.755Z,12.00
2023-05-16T16:48:12.067Z,12.00
2023-05-16T16:50:39.153Z,12.00
2023-05-16T16:53:06.501Z,11.80
2023-05-16T16:55:33.610Z,11.60
2023-05-16T16:58:01.941Z,11.40
2023-05-16T17:00:29.596Z,11.30
2023-05-16T17:02:57.050Z,11.30
2023-05-16T17:05:24.202Z,11.20
2023-05-16T17:07:51.840Z,11.20
2023-05-16T17:10:19.047Z,11.10
2023-05-16T17:12:49.467Z,11.00
2023-05-16T17:15:20.121Z,11.00
2023-05-16T17:17:49.343Z,10.90
2023-05-16T17:20:16.601Z,10.80
2023-05-16T17:22:43.744Z,10.90
2023-05-16T17:25:10.894Z,10.90
2023-05-16T17:27:37.985Z,10.90
2023-05-16T17:30:06.184Z,10.80
2023-05-16T17:32:33.303Z,10.80
2023-05-16T17:35:03.912Z,10.80
2023-05-16T17:37:31.235Z,10.70
2023-05-16T17:39:58.727Z,10.70
2023-05-16T17:42:26.944Z,10.80
2023-05-16T17:44:54.091Z,10.80
2023-05-16T17:47:21.149Z,10.70
2023-05-16T17:49:49.823Z,10.70
2023-05-16T17:52:16.901Z,10.50
2023-05-16T17:54:44.039Z,10.50
2023-05-16T17:57:11.154Z,10.40
2023-05-16T17:59:38.588Z,10.40
2023-05-16T18:02:09.948Z,10.30
2023-05-16T18:04:37.136Z,10.30
2023-05-16T18:07:04.314Z,10.20
2023-05-16T18:09:31.717Z,10.10
2023-05-16T18:11:58.812Z,10.10
2023-05-16T18:14:26.029Z,10.10
2023-05-16T18:16:53.120Z,10.20
2023-05-16T18:19:20.704Z,10.20
2023-05-16T18:21:47.868Z,10.20
2023-05-16T18:24:16.444Z,10.10
2023-05-16T18:26:44.591Z,10.20
2023-05-16T18:29:11.992Z,10.20
2023-05-16T18:31:42.424Z,10.10
2023-05-16T18:34:10.630Z,10.00
2023-05-16T18:36:37.673Z,9.90
2023-05-16T18:39:04.707Z,9.90
2023-05-16T18:41:31.822Z,9.90
2023-05-16T18:43:58.865Z,9.90
2023-05-16T18:46:25.867Z,9.90
2023-05-16T18:48:57.621Z,9.90
2023-05-16T18:51:25.391Z,9.90
2023-05-16T18:53:52.844Z,9.90
2023-05-16T18:56:19.853Z,9.90
2023-05-16T18:58:52.772Z,9.80
2023-05-16T19:01:22.336Z,9.80
2023-05-16T19:03:50.155Z,9.70
2023-05-16T19:06:18.848Z,9.60
2023-05-16T19:08:48.135Z,9.60
2023-05-16T19:11:16.527Z,9.50
2023-05-16T19:13:45.457Z,9.50
2023-05-16T19:16:12.576Z,9.50
2023-05-16T19:18:39.877Z,9.50
2023-05-16T19:21:13.494Z,9.50
2023-05-16T19:23:40.850Z,9.50
2023-05-16T19:26:07.932Z,9.60
2023-05-16T19:28:35.002Z,9.60
2023-05-16T19:31:02.160Z,9.60
2023-05-16T19:33:29.151Z,9.60
2023-05-16T19:35:58.728Z,9.60
2023-05-16T19:38:26.438Z,9.60
2023-05-16T19:40:54.256Z,9.60
2023-05-16T19:43:21.326Z,9.50
2023-05-16T19:45:48.400Z,9.50
2023-05-16T19:48:15.776Z,9.50
2023-05-16T19:50:43.139Z,9.50
2023-05-16T19:53:11.411Z,9.40
2023-05-16T19:55:38.411Z,9.40
2023-05-16T19:58:05.505Z,9.40
2023-05-16T20:00:32.686Z,9.30
2023-05-16T20:02:59.850Z,9.30
2023-05-16T20:05:27.314Z,9.30
2023-05-16T20:07:55.496Z,9.30
2023-05-16T20:10:22.840Z,9.40
2023-05-16T20:12:50.077Z,9.40
2023-05-16T20:15:17.094Z,9.30
2023-05-16T20:17:44.507Z,9.30
2023-05-16T20:20:11.792Z,9.30
2023-05-16T20:22:39.607Z,9.30
2023-05-16T20:25:07.805Z,9.30
2023-05-16T20:27:35.720Z,9.30
2023-05-16T20:30:03.603Z,9.20
2023-05-16T20:32:31.064Z,9.20
2023-05-16T20:34:58.352Z,9.20
2023-05-16T20:37:28.192Z,9.20
2023-05-16T20:39:56.033Z,9.20
2023-05-16T20:42:23.121Z,9.20
2023-05-16T20:44:50.121Z,9.20
2023-05-16T20:47:17.829Z,9.20
2023-05-16T20:49:45.261Z,9.10
2023-05-16T20:52:12.324Z,9.10
2023-05-16T20:54:40.156Z,9.10
2023-05-16T20:57:07.518Z,9.00
2023-05-16T20:59:34.699Z,8.90
2023-05-16T21:02:01.692Z,8.70
2023-05-16T21:04:31.058Z,8.60
2023-05-16T21:06:58.212Z,8.50
2023-05-16T21:09:25.364Z,8.30
2023-05-16T21:11:52.454Z,8.20
2023-05-16T21:14:19.570Z,8.20
2023-05-16T21:16:46.644Z,8.20
2023-05-16T21:19:14.210Z,8.20
2023-05-16T21:21:41.335Z,8.10
2023-05-16T21:24:08.412Z,8.10
2023-05-16T21:26:35.437Z,8.10
2023-05-16T21:29:02.453Z,8.00
2023-05-16T21:31:29.761Z,8.00
2023-05-16T21:33:56.795Z,7.90
2023-05-16T21:36:23.862Z,7.80
2023-05-16T21:38:50.890Z,7.80
2023-05-16T21:41:18.366Z,7.70
2023-05-16T21:43:45.448Z,7.60
2023-05-16T21:46:13.065Z,7.60
2023-05-16T21:48:40.298Z,7.60
2023-05-16T21:51:07.622Z,7.60
2023-05-16T21:53:34.828Z,7.50
2023-05-16T21:56:03.324Z,7.40
2023-05-16T21:58:30.417Z,7.40
2023-05-16T22:00:57.595Z,7.30
2023-05-16T22:03:24.640Z,7.30
2023-05-16T22:05:51.776Z,7.30
2023-05-16T22:08:19.074Z,7.20
2023-05-16T22:10:46.366Z,7.20
2023-05-16T22:13:13.633Z,7.20
2023-05-16T22:15:42.444Z,7.20
2023-05-16T22:18:11.844Z,7.10
2023-05-16T22:20:41.623Z,7.10
2023-05-16T22:23:08.700Z,7.00
2023-05-16T22:25:35.729Z,7.00
2023-05-16T22:28:04.311Z,6.90
2023-05-16T22:30:31.452Z,6.90
2023-05-16T22:32:58.545Z,6.90
2023-05-16T22:35:27.433Z,6.80
2023-05-16T22:37:54.715Z,6.80
2023-05-16T22:40:21.789Z,6.70
2023-05-16T22:42:49.101Z,6.70
2023-05-16T22:45:16.227Z,6.70
2023-05-16T22:47:43.531Z,6.60
2023-05-16T22:50:11.322Z,6.60
2023-05-16T22:52:44.489Z,6.60
2023-05-16T22:55:11.809Z,6.50
2023-05-16T22:57:38.832Z,6.50
2023-05-16T23:00:06.718Z,6.40
2023-05-16T23:02:34.293Z,6.40
2023-05-16T23:05:01.567Z,6.40
2023-05-16T23:07:29.718Z,6.30
2023-05-16T23:09:56.775Z,6.30
2023-05-16T23:12:25.387Z,6.20
2023-05-16T23:14:52.544Z,6.20
2023-05-16T23:17:19.638Z,6.20
2023-05-16T23:19:46.725Z,6.20
2023-05-16T23:22:13.878Z,6.10
2023-05-16T23:24:41.250Z,6.10
2023-05-16T23:27:08.343Z,6.10
2023-05-16T23:29:35.439Z,6.00
2023-05-16T23:32:02.715Z,6.00
2023-05-16T23:34:29.766Z,5.90
2023-05-16T23:36:56.855Z,5.90
2023-05-16T23:39:23.826Z,5.90
2023-05-16T23:41:50.876Z,5.90
2023-05-16T23:44:17.862Z,5.90
2023-05-16T23:46:44.944Z,5.80
2023-05-16T23:49:11.908Z,5.80
2023-05-16T23:51:56.089Z,5.70
2023-05-16T23:54:24.093Z,5.60
2023-05-16T23:56:51.345Z,5.60
2023-05-16T23:59:19.184Z,5.60
